Open Full Screen Window  High Contrast Mode
Wind Gusting 00 knots
04
October 21, 2014 2:01 AM CDT
Weather Information
Wind Direction
  290 °
Wind Speed
  04 kt (5 mph)
Wind Gust
  00 kt (0 mph)
Altimeter
29.92 in
Visibility
10 SM
Temperature
10° C
50° F
Dewpoint
10° C
50° F
Humidity
100%
Sky Condition
Overcast @ 5,000 ft
VFR

METAR KAXV 210701Z AUTO 29004KT 10SM OVC050 10/10 A2992 RMK AO2

*Background is not an actual portrayal of the airport.